sensor_id;sensor_type;location;lat;lon;timestamp;P1;P2;P0
57411;PMS5003;43247;52.828;-8.980;2024-02-21T00:00:11;15;15;
57411;PMS5003;43247;52.828;-8.980;2024-02-21T00:01:14;16;16;
57411;PMS5003;43247;52.828;-8.980;2024-02-21T00:02:11;14;13;
57411;PMS5003;43247;52.828;-8.980;2024-02-21T00:03:12;15;14;
57411;PMS5003;43247;52.828;-8.980;2024-02-21T00:04:12;12;12;
57411;PMS5003;43247;52.828;-8.980;2024-02-21T00:05:13;13;13;
57411;PMS5003;43247;52.828;-8.980;2024-02-21T00:06:13;17;14;
57411;PMS5003;43247;52.828;-8.980;2024-02-21T00:07:14;14;13;
57411;PMS5003;43247;52.828;-8.980;2024-02-21T00:08:14;16;15;
57411;PMS5003;43247;52.828;-8.980;2024-02-21T00:09:14;14;13;
57411;PMS5003;43247;52.828;-8.980;2024-02-21T00:10:15;18;15;
57411;PMS5003;43247;52.828;-8.980;2024-02-21T00:11:15;14;12;
57411;PMS5003;43247;52.828;-8.980;2024-02-21T00:12:15;12;12;
57411;PMS5003;43247;52.828;-8.980;2024-02-21T00:13:15;12;11;
57411;PMS5003;43247;52.828;-8.980;2024-02-21T00:14:15;15;12;
57411;PMS5003;43247;52.828;-8.980;2024-02-21T00:15:16;15;13;
57411;PMS5003;43247;52.828;-8.980;2024-02-21T00:16:16;13;10;
57411;PMS5003;43247;52.828;-8.980;2024-02-21T00:17:16;11;11;
57411;PMS5003;43247;52.828;-8.980;2024-02-21T00:18:16;13;13;
57411;PMS5003;43247;52.828;-8.980;2024-02-21T00:19:16;12;10;
57411;PMS5003;43247;52.828;-8.980;2024-02-21T00:20:16;12;10;
57411;PMS5003;43247;52.828;-8.980;2024-02-21T00:21:17;13;12;
57411;PMS5003;43247;52.828;-8.980;2024-02-21T00:22:17;15;14;
57411;PMS5003;43247;52.828;-8.980;2024-02-21T00:23:17;11;10;
57411;PMS5003;43247;52.828;-8.980;2024-02-21T00:24:18;14;11;
57411;PMS5003;43247;52.828;-8.980;2024-02-21T00:25:18;12;10;
57411;PMS5003;43247;52.828;-8.980;2024-02-21T00:26:19;8;8;
57411;PMS5003;43247;52.828;-8.980;2024-02-21T00:27:19;12;10;
57411;PMS5003;43247;52.828;-8.980;2024-02-21T00:28:19;11;11;
57411;PMS5003;43247;52.828;-8.980;2024-02-21T00:29:19;9;9;
57411;PMS5003;43247;52.828;-8.980;2024-02-21T00:30:19;10;9;
57411;PMS5003;43247;52.828;-8.980;2024-02-21T00:31:20;11;8;
57411;PMS5003;43247;52.828;-8.980;2024-02-21T00:32:20;11;8;
57411;PMS5003;43247;52.828;-8.980;2024-02-21T00:33:20;13;10;
57411;PMS5003;43247;52.828;-8.980;2024-02-21T00:34:20;13;11;
57411;PMS5003;43247;52.828;-8.980;2024-02-21T00:35:20;10;9;
57411;PMS5003;43247;52.828;-8.980;2024-02-21T00:36:20;9;9;
57411;PMS5003;43247;52.828;-8.980;2024-02-21T00:37:21;9;7;
57411;PMS5003;43247;52.828;-8.980;2024-02-21T00:38:21;9;7;
57411;PMS5003;43247;52.828;-8.980;2024-02-21T00:39:21;9;9;
57411;PMS5003;43247;52.828;-8.980;2024-02-21T00:40:21;9;8;
57411;PMS5003;43247;52.828;-8.980;2024-02-21T00:41:21;9;9;
57411;PMS5003;43247;52.828;-8.980;2024-02-21T00:42:21;7;7;
57411;PMS5003;43247;52.828;-8.980;2024-02-21T00:43:22;6;5;
57411;PMS5003;43247;52.828;-8.980;2024-02-21T00:44:22;10;9;
57411;PMS5003;43247;52.828;-8.980;2024-02-21T00:45:22;8;7;
57411;PMS5003;43247;52.828;-8.980;2024-02-21T00:46:22;9;8;
57411;PMS5003;43247;52.828;-8.980;2024-02-21T00:47:22;6;6;
57411;PMS5003;43247;52.828;-8.980;2024-02-21T00:48:23;11;10;
57411;PMS5003;43247;52.828;-8.980;2024-02-21T00:49:23;7;7;
57411;PMS5003;43247;52.828;-8.980;2024-02-21T00:50:23;8;7;
57411;PMS5003;43247;52.828;-8.980;2024-02-21T00:51:24;7;6;
57411;PMS5003;43247;52.828;-8.980;2024-02-21T00:52:24;8;7;
57411;PMS5003;43247;52.828;-8.980;2024-02-21T00:53:25;6;6;
57411;PMS5003;43247;52.828;-8.980;2024-02-21T00:54:25;6;6;
57411;PMS5003;43247;52.828;-8.980;2024-02-21T00:55:25;8;8;
57411;PMS5003;43247;52.828;-8.980;2024-02-21T00:56:25;10;7;
57411;PMS5003;43247;52.828;-8.980;2024-02-21T00:57:25;8;6;
57411;PMS5003;43247;52.828;-8.980;2024-02-21T00:58:25;7;7;
57411;PMS5003;43247;52.828;-8.980;2024-02-21T00:59:26;7;5;
57411;PMS5003;43247;52.828;-8.980;2024-02-21T01:00:26;7;6;
57411;PMS5003;43247;52.828;-8.980;2024-02-21T01:01:26;8;7;
57411;PMS5003;43247;52.828;-8.980;2024-02-21T01:02:27;7;7;
57411;PMS5003;43247;52.828;-8.980;2024-02-21T01:03:27;6;5;
57411;PMS5003;43247;52.828;-8.980;2024-02-21T01:04:27;9;8;
57411;PMS5003;43247;52.828;-8.980;2024-02-21T01:05:27;8;6;
57411;PMS5003;43247;52.828;-8.980;2024-02-21T01:06:27;7;6;
57411;PMS5003;43247;52.828;-8.980;2024-02-21T01:07:28;4;4;
57411;PMS5003;43247;52.828;-8.980;2024-02-21T01:08:28;8;7;
57411;PMS5003;43247;52.828;-8.980;2024-02-21T01:09:28;5;5;
57411;PMS5003;43247;52.828;-8.980;2024-02-21T01:10:28;4;4;
57411;PMS5003;43247;52.828;-8.980;2024-02-21T01:11:28;6;5;
57411;PMS5003;43247;52.828;-8.980;2024-02-21T01:12:29;8;6;
57411;PMS5003;43247;52.828;-8.980;2024-02-21T01:13:29;7;6;
57411;PMS5003;43247;52.828;-8.980;2024-02-21T01:14:29;4;4;
57411;PMS5003;43247;52.828;-8.980;2024-02-21T01:15:29;6;6;
57411;PMS5003;43247;52.828;-8.980;2024-02-21T01:16:29;3;3;
57411;PMS5003;43247;52.828;-8.980;2024-02-21T01:17:29;5;5;
57411;PMS5003;43247;52.828;-8.980;2024-02-21T01:18:30;4;4;
57411;PMS5003;43247;52.828;-8.980;2024-02-21T01:19:30;5;5;
57411;PMS5003;43247;52.828;-8.980;2024-02-21T01:20:30;6;6;
57411;PMS5003;43247;52.828;-8.980;2024-02-21T01:21:30;5;5;
57411;PMS5003;43247;52.828;-8.980;2024-02-21T01:22:30;8;7;
57411;PMS5003;43247;52.828;-8.980;2024-02-21T01:23:30;4;4;
57411;PMS5003;43247;52.828;-8.980;2024-02-21T01:24:31;6;5;
57411;PMS5003;43247;52.828;-8.980;2024-02-21T01:25:31;9;6;
57411;PMS5003;43247;52.828;-8.980;2024-02-21T01:26:31;5;3;
57411;PMS5003;43247;52.828;-8.980;2024-02-21T01:27:31;10;8;
57411;PMS5003;43247;52.828;-8.980;2024-02-21T01:28:31;3;3;
57411;PMS5003;43247;52.828;-8.980;2024-02-21T01:29:32;5;4;
57411;PMS5003;43247;52.828;-8.980;2024-02-21T01:30:32;7;6;
57411;PMS5003;43247;52.828;-8.980;2024-02-21T01:31:32;6;5;
57411;PMS5003;43247;52.828;-8.980;2024-02-21T01:32:32;5;4;
57411;PMS5003;43247;52.828;-8.980;2024-02-21T01:33:32;5;5;
57411;PMS5003;43247;52.828;-8.980;2024-02-21T01:34:32;5;5;
57411;PMS5003;43247;52.828;-8.980;2024-02-21T01:35:34;7;4;
57411;PMS5003;43247;52.828;-8.980;2024-02-21T01:36:33;3;2;
57411;PMS5003;43247;52.828;-8.980;2024-02-21T01:37:34;7;6;
57411;PMS5003;43247;52.828;-8.980;2024-02-21T01:38:34;2;1;
57411;PMS5003;43247;52.828;-8.980;2024-02-21T01:39:34;5;4;
57411;PMS5003;43247;52.828;-8.980;2024-02-21T01:40:34;4;4;
57411;PMS5003;43247;52.828;-8.980;2024-02-21T01:41:34;4;4;
57411;PMS5003;43247;52.828;-8.980;2024-02-21T01:42:37;3;3;
57411;PMS5003;43247;52.828;-8.980;2024-02-21T01:43:35;6;5;
57411;PMS5003;43247;52.828;-8.980;2024-02-21T01:44:35;3;3;
57411;PMS5003;43247;52.828;-8.980;2024-02-21T01:45:35;4;4;
57411;PMS5003;43247;52.828;-8.980;2024-02-21T01:46:35;6;2;
57411;PMS5003;43247;52.828;-8.980;2024-02-21T01:47:36;4;4;
57411;PMS5003;43247;52.828;-8.980;2024-02-21T01:48:36;5;5;
57411;PMS5003;43247;52.828;-8.980;2024-02-21T01:49:36;5;5;
57411;PMS5003;43247;52.828;-8.980;2024-02-21T01:50:36;4;4;
57411;PMS5003;43247;52.828;-8.980;2024-02-21T01:51:37;3;3;
57411;PMS5003;43247;52.828;-8.980;2024-02-21T01:52:37;6;4;
57411;PMS5003;43247;52.828;-8.980;2024-02-21T01:53:38;6;4;
57411;PMS5003;43247;52.828;-8.980;2024-02-21T01:54:37;7;7;
57411;PMS5003;43247;52.828;-8.980;2024-02-21T01:55:37;4;4;
57411;PMS5003;43247;52.828;-8.980;2024-02-21T01:56:37;7;6;
57411;PMS5003;43247;52.828;-8.980;2024-02-21T01:57:38;5;4;
57411;PMS5003;43247;52.828;-8.980;2024-02-21T01:58:39;6;6;
57411;PMS5003;43247;52.828;-8.980;2024-02-21T01:59:38;4;4;
57411;PMS5003;43247;52.828;-8.980;2024-02-21T02:00:38;8;6;
57411;PMS5003;43247;52.828;-8.980;2024-02-21T02:01:38;4;4;
57411;PMS5003;43247;52.828;-8.980;2024-02-21T02:02:39;4;4;
57411;PMS5003;43247;52.828;-8.980;2024-02-21T02:03:39;6;5;
57411;PMS5003;43247;52.828;-8.980;2024-02-21T02:04:39;6;5;
57411;PMS5003;43247;52.828;-8.980;2024-02-21T02:05:39;5;5;
57411;PMS5003;43247;52.828;-8.980;2024-02-21T02:06:39;5;5;
57411;PMS5003;43247;52.828;-8.980;2024-02-21T02:07:39;5;5;
57411;PMS5003;43247;52.828;-8.980;2024-02-21T02:08:40;7;7;
57411;PMS5003;43247;52.828;-8.980;2024-02-21T02:09:40;7;6;
57411;PMS5003;43247;52.828;-8.980;2024-02-21T02:10:40;5;5;
57411;PMS5003;43247;52.828;-8.980;2024-02-21T02:11:40;5;4;
57411;PMS5003;43247;52.828;-8.980;2024-02-21T02:12:40;4;4;
57411;PMS5003;43247;52.828;-8.980;2024-02-21T02:13:41;6;6;
57411;PMS5003;43247;52.828;-8.980;2024-02-21T02:14:41;4;4;
57411;PMS5003;43247;52.828;-8.980;2024-02-21T02:15:41;5;5;
57411;PMS5003;43247;52.828;-8.980;2024-02-21T02:16:41;5;4;
57411;PMS5003;43247;52.828;-8.980;2024-02-21T02:17:41;6;6;
57411;PMS5003;43247;52.828;-8.980;2024-02-21T02:18:41;4;4;
57411;PMS5003;43247;52.828;-8.980;2024-02-21T02:19:42;5;5;
57411;PMS5003;43247;52.828;-8.980;2024-02-21T02:20:42;5;5;
57411;PMS5003;43247;52.828;-8.980;2024-02-21T02:21:46;6;6;
57411;PMS5003;43247;52.828;-8.980;2024-02-21T02:22:42;7;7;
57411;PMS5003;43247;52.828;-8.980;2024-02-21T02:23:42;5;5;
57411;PMS5003;43247;52.828;-8.980;2024-02-21T02:24:42;4;4;
57411;PMS5003;43247;52.828;-8.980;2024-02-21T02:25:43;4;4;
57411;PMS5003;43247;52.828;-8.980;2024-02-21T02:26:43;3;3;
57411;PMS5003;43247;52.828;-8.980;2024-02-21T02:27:43;7;4;
57411;PMS5003;43247;52.828;-8.980;2024-02-21T02:28:43;5;5;
57411;PMS5003;43247;52.828;-8.980;2024-02-21T02:29:43;5;4;
57411;PMS5003;43247;52.828;-8.980;2024-02-21T02:30:44;3;3;
57411;PMS5003;43247;52.828;-8.980;2024-02-21T02:31:44;4;4;
57411;PMS5003;43247;52.828;-8.980;2024-02-21T02:32:44;4;4;
57411;PMS5003;43247;52.828;-8.980;2024-02-21T02:33:44;4;4;
57411;PMS5003;43247;52.828;-8.980;2024-02-21T02:34:44;4;4;
57411;PMS5003;43247;52.828;-8.980;2024-02-21T02:35:45;5;5;
57411;PMS5003;43247;52.828;-8.980;2024-02-21T02:36:45;5;5;
57411;PMS5003;43247;52.828;-8.980;2024-02-21T02:37:48;4;4;
57411;PMS5003;43247;52.828;-8.980;2024-02-21T02:38:45;4;4;
57411;PMS5003;43247;52.828;-8.980;2024-02-21T02:39:45;2;2;
57411;PMS5003;43247;52.828;-8.980;2024-02-21T02:40:45;4;4;
57411;PMS5003;43247;52.828;-8.980;2024-02-21T02:41:45;4;4;
57411;PMS5003;43247;52.828;-8.980;2024-02-21T02:42:46;4;4;
57411;PMS5003;43247;52.828;-8.980;2024-02-21T02:43:46;2;1;
57411;PMS5003;43247;52.828;-8.980;2024-02-21T02:44:46;3;3;
57411;PMS5003;43247;52.828;-8.980;2024-02-21T02:45:46;3;3;
57411;PMS5003;43247;52.828;-8.980;2024-02-21T02:46:46;4;3;
57411;PMS5003;43247;52.828;-8.980;2024-02-21T02:47:46;3;3;
57411;PMS5003;43247;52.828;-8.980;2024-02-21T02:48:47;3;3;
57411;PMS5003;43247;52.828;-8.980;2024-02-21T02:49:47;4;3;
57411;PMS5003;43247;52.828;-8.980;2024-02-21T02:50:47;4;3;
57411;PMS5003;43247;52.828;-8.980;2024-02-21T02:51:47;2;1;
57411;PMS5003;43247;52.828;-8.980;2024-02-21T02:52:47;2;2;
57411;PMS5003;43247;52.828;-8.980;2024-02-21T02:53:47;4;4;
57411;PMS5003;43247;52.828;-8.980;2024-02-21T02:54:48;3;2;
57411;PMS5003;43247;52.828;-8.980;2024-02-21T02:55:48;4;2;
57411;PMS5003;43247;52.828;-8.980;2024-02-21T02:56:49;2;2;
57411;PMS5003;43247;52.828;-8.980;2024-02-21T02:57:48;4;2;
57411;PMS5003;43247;52.828;-8.980;2024-02-21T02:58:48;2;2;
57411;PMS5003;43247;52.828;-8.980;2024-02-21T02:59:49;3;3;
57411;PMS5003;43247;52.828;-8.980;2024-02-21T03:00:49;5;3;
57411;PMS5003;43247;52.828;-8.980;2024-02-21T03:01:49;2;2;
57411;PMS5003;43247;52.828;-8.980;2024-02-21T03:02:49;4;4;
57411;PMS5003;43247;52.828;-8.980;2024-02-21T03:03:49;2;2;
57411;PMS5003;43247;52.828;-8.980;2024-02-21T03:04:49;2;2;
57411;PMS5003;43247;52.828;-8.980;2024-02-21T03:05:50;2;2;
57411;PMS5003;43247;52.828;-8.980;2024-02-21T03:06:50;2;2;
57411;PMS5003;43247;52.828;-8.980;2024-02-21T03:07:50;3;3;
57411;PMS5003;43247;52.828;-8.980;2024-02-21T03:08:50;2;2;
57411;PMS5003;43247;52.828;-8.980;2024-02-21T03:09:50;1;0;
57411;PMS5003;43247;52.828;-8.980;2024-02-21T03:10:50;2;2;
57411;PMS5003;43247;52.828;-8.980;2024-02-21T03:11:51;2;0;
57411;PMS5003;43247;52.828;-8.980;2024-02-21T03:12:51;2;2;
57411;PMS5003;43247;52.828;-8.980;2024-02-21T03:13:51;0;0;
57411;PMS5003;43247;52.828;-8.980;2024-02-21T03:14:51;1;1;
57411;PMS5003;43247;52.828;-8.980;2024-02-21T03:15:51;2;2;
57411;PMS5003;43247;52.828;-8.980;2024-02-21T03:16:51;0;0;
57411;PMS5003;43247;52.828;-8.980;2024-02-21T03:17:52;1;1;
57411;PMS5003;43247;52.828;-8.980;2024-02-21T03:18:52;1;1;
57411;PMS5003;43247;52.828;-8.980;2024-02-21T03:19:52;1;1;
57411;PMS5003;43247;52.828;-8.980;2024-02-21T03:20:52;1;1;
57411;PMS5003;43247;52.828;-8.980;2024-02-21T03:21:52;1;1;
57411;PMS5003;43247;52.828;-8.980;2024-02-21T03:22:52;3;2;
57411;PMS5003;43247;52.828;-8.980;2024-02-21T03:23:53;1;1;
57411;PMS5003;43247;52.828;-8.980;2024-02-21T03:24:53;0;0;
57411;PMS5003;43247;52.828;-8.980;2024-02-21T03:25:53;0;0;
57411;PMS5003;43247;52.828;-8.980;2024-02-21T03:26:53;2;2;
57411;PMS5003;43247;52.828;-8.980;2024-02-21T03:27:53;0;0;
57411;PMS5003;43247;52.828;-8.980;2024-02-21T03:28:53;0;0;
57411;PMS5003;43247;52.828;-8.980;2024-02-21T03:29:54;0;0;
57411;PMS5003;43247;52.828;-8.980;2024-02-21T03:30:54;0;0;
57411;PMS5003;43247;52.828;-8.980;2024-02-21T03:31:54;0;0;
57411;PMS5003;43247;52.828;-8.980;2024-02-21T03:32:54;1;1;
57411;PMS5003;43247;52.828;-8.980;2024-02-21T03:33:54;0;0;
57411;PMS5003;43247;52.828;-8.980;2024-02-21T03:34:54;0;0;
57411;PMS5003;43247;52.828;-8.980;2024-02-21T03:35:54;1;1;
57411;PMS5003;43247;52.828;-8.980;2024-02-21T03:36:55;0;0;
57411;PMS5003;43247;52.828;-8.980;2024-02-21T03:37:55;0;0;
57411;PMS5003;43247;52.828;-8.980;2024-02-21T03:38:55;0;0;
57411;PMS5003;43247;52.828;-8.980;2024-02-21T03:39:55;0;0;
57411;PMS5003;43247;52.828;-8.980;2024-02-21T03:40:55;0;0;
57411;PMS5003;43247;52.828;-8.980;2024-02-21T03:41:55;0;0;
57411;PMS5003;43247;52.828;-8.980;2024-02-21T03:42:56;0;0;
57411;PMS5003;43247;52.828;-8.980;2024-02-21T03:43:56;0;0;
57411;PMS5003;43247;52.828;-8.980;2024-02-21T03:44:56;1;1;
57411;PMS5003;43247;52.828;-8.980;2024-02-21T03:45:56;0;0;
57411;PMS5003;43247;52.828;-8.980;2024-02-21T03:46:56;0;0;
57411;PMS5003;43247;52.828;-8.980;2024-02-21T03:47:56;0;0;
57411;PMS5003;43247;52.828;-8.980;2024-02-21T03:48:57;0;0;
57411;PMS5003;43247;52.828;-8.980;2024-02-21T03:49:57;0;0;
57411;PMS5003;43247;52.828;-8.980;2024-02-21T03:50:57;0;0;
57411;PMS5003;43247;52.828;-8.980;2024-02-21T03:51:57;0;0;
57411;PMS5003;43247;52.828;-8.980;2024-02-21T03:52:57;0;0;
57411;PMS5003;43247;52.828;-8.980;2024-02-21T03:53:57;0;0;
57411;PMS5003;43247;52.828;-8.980;2024-02-21T03:54:58;0;0;
57411;PMS5003;43247;52.828;-8.980;2024-02-21T03:56:00;0;0;
57411;PMS5003;43247;52.828;-8.980;2024-02-21T03:56:58;0;0;
57411;PMS5003;43247;52.828;-8.980;2024-02-21T03:57:58;0;0;
57411;PMS5003;43247;52.828;-8.980;2024-02-21T03:58:58;0;0;
57411;PMS5003;43247;52.828;-8.980;2024-02-21T03:59:59;0;0;
57411;PMS5003;43247;52.828;-8.980;2024-02-21T04:00:59;0;0;
57411;PMS5003;43247;52.828;-8.980;2024-02-21T04:01:59;0;0;
57411;PMS5003;43247;52.828;-8.980;2024-02-21T04:02:59;0;0;
57411;PMS5003;43247;52.828;-8.980;2024-02-21T04:03:59;0;0;
57411;PMS5003;43247;52.828;-8.980;2024-02-21T04:04:59;0;0;
57411;PMS5003;43247;52.828;-8.980;2024-02-21T04:05:59;0;0;
57411;PMS5003;43247;52.828;-8.980;2024-02-21T04:07:00;0;0;
57411;PMS5003;43247;52.828;-8.980;2024-02-21T04:08:00;1;0;
57411;PMS5003;43247;52.828;-8.980;2024-02-21T04:09:00;0;0;
57411;PMS5003;43247;52.828;-8.980;2024-02-21T04:10:00;0;0;
57411;PMS5003;43247;52.828;-8.980;2024-02-21T04:11:00;0;0;
57411;PMS5003;43247;52.828;-8.980;2024-02-21T04:12:00;0;0;
57411;PMS5003;43247;52.828;-8.980;2024-02-21T04:13:01;0;0;
57411;PMS5003;43247;52.828;-8.980;2024-02-21T04:14:01;0;0;
57411;PMS5003;43247;52.828;-8.980;2024-02-21T04:15:01;0;0;
57411;PMS5003;43247;52.828;-8.980;2024-02-21T04:16:01;0;0;
57411;PMS5003;43247;52.828;-8.980;2024-02-21T04:17:01;0;0;
57411;PMS5003;43247;52.828;-8.980;2024-02-21T04:18:01;0;0;
57411;PMS5003;43247;52.828;-8.980;2024-02-21T04:19:02;0;0;
57411;PMS5003;43247;52.828;-8.980;2024-02-21T04:20:03;0;0;
57411;PMS5003;43247;52.828;-8.980;2024-02-21T04:21:03;0;0;
57411;PMS5003;43247;52.828;-8.980;2024-02-21T04:22:03;0;0;
57411;PMS5003;43247;52.828;-8.980;2024-02-21T04:23:03;0;0;
57411;PMS5003;43247;52.828;-8.980;2024-02-21T04:24:03;0;0;
57411;PMS5003;43247;52.828;-8.980;2024-02-21T04:25:04;0;0;
57411;PMS5003;43247;52.828;-8.980;2024-02-21T04:26:04;0;0;
57411;PMS5003;43247;52.828;-8.980;2024-02-21T04:27:04;0;0;
57411;PMS5003;43247;52.828;-8.980;2024-02-21T04:28:04;0;0;
57411;PMS5003;43247;52.828;-8.980;2024-02-21T04:29:04;0;0;
57411;PMS5003;43247;52.828;-8.980;2024-02-21T04:30:05;0;0;
57411;PMS5003;43247;52.828;-8.980;2024-02-21T04:31:04;0;0;
57411;PMS5003;43247;52.828;-8.980;2024-02-21T04:32:05;0;0;
57411;PMS5003;43247;52.828;-8.980;2024-02-21T04:33:05;0;0;
57411;PMS5003;43247;52.828;-8.980;2024-02-21T04:34:05;0;0;
57411;PMS5003;43247;52.828;-8.980;2024-02-21T04:35:05;0;0;
57411;PMS5003;43247;52.828;-8.980;2024-02-21T04:36:05;0;0;
57411;PMS5003;43247;52.828;-8.980;2024-02-21T04:37:05;0;0;
57411;PMS5003;43247;52.828;-8.980;2024-02-21T04:38:06;0;0;
57411;PMS5003;43247;52.828;-8.980;2024-02-21T04:39:06;0;0;
57411;PMS5003;43247;52.828;-8.980;2024-02-21T04:40:06;0;0;
57411;PMS5003;43247;52.828;-8.980;2024-02-21T04:41:06;0;0;
57411;PMS5003;43247;52.828;-8.980;2024-02-21T04:42:06;0;0;
57411;PMS5003;43247;52.828;-8.980;2024-02-21T04:43:06;0;0;
57411;PMS5003;43247;52.828;-8.980;2024-02-21T04:44:06;0;0;
57411;PMS5003;43247;52.828;-8.980;2024-02-21T04:45:07;0;0;
57411;PMS5003;43247;52.828;-8.980;2024-02-21T04:46:07;0;0;
57411;PMS5003;43247;52.828;-8.980;2024-02-21T04:47:07;0;0;
57411;PMS5003;43247;52.828;-8.980;2024-02-21T04:48:07;0;0;
57411;PMS5003;43247;52.828;-8.980;2024-02-21T04:49:07;0;0;
57411;PMS5003;43247;52.828;-8.980;2024-02-21T04:50:08;0;0;
57411;PMS5003;43247;52.828;-8.980;2024-02-21T04:51:08;0;0;
57411;PMS5003;43247;52.828;-8.980;2024-02-21T04:52:08;0;0;
57411;PMS5003;43247;52.828;-8.980;2024-02-21T04:53:08;0;0;
57411;PMS5003;43247;52.828;-8.980;2024-02-21T04:54:08;0;0;
57411;PMS5003;43247;52.828;-8.980;2024-02-21T04:55:09;0;0;
57411;PMS5003;43247;52.828;-8.980;2024-02-21T04:56:09;0;0;
57411;PMS5003;43247;52.828;-8.980;2024-02-21T04:57:09;0;0;
57411;PMS5003;43247;52.828;-8.980;2024-02-21T04:58:09;0;0;
57411;PMS5003;43247;52.828;-8.980;2024-02-21T04:59:09;0;0;
57411;PMS5003;43247;52.828;-8.980;2024-02-21T05:00:10;0;0;
57411;PMS5003;43247;52.828;-8.980;2024-02-21T05:01:09;0;0;
57411;PMS5003;43247;52.828;-8.980;2024-02-21T05:02:09;0;0;
57411;PMS5003;43247;52.828;-8.980;2024-02-21T05:03:10;0;0;
57411;PMS5003;43247;52.828;-8.980;2024-02-21T05:04:10;0;0;
57411;PMS5003;43247;52.828;-8.980;2024-02-21T05:05:10;0;0;
57411;PMS5003;43247;52.828;-8.980;2024-02-21T05:06:10;0;0;
57411;PMS5003;43247;52.828;-8.980;2024-02-21T05:07:10;0;0;
57411;PMS5003;43247;52.828;-8.980;2024-02-21T05:08:10;0;0;
57411;PMS5003;43247;52.828;-8.980;2024-02-21T05:09:11;0;0;
57411;PMS5003;43247;52.828;-8.980;2024-02-21T05:10:11;0;0;
57411;PMS5003;43247;52.828;-8.980;2024-02-21T05:11:11;0;0;
57411;PMS5003;43247;52.828;-8.980;2024-02-21T05:12:11;0;0;
57411;PMS5003;43247;52.828;-8.980;2024-02-21T05:13:11;0;0;
57411;PMS5003;43247;52.828;-8.980;2024-02-21T05:14:11;1;0;
57411;PMS5003;43247;52.828;-8.980;2024-02-21T05:15:12;0;0;
57411;PMS5003;43247;52.828;-8.980;2024-02-21T05:16:12;0;0;
57411;PMS5003;43247;52.828;-8.980;2024-02-21T05:17:12;0;0;
57411;PMS5003;43247;52.828;-8.980;2024-02-21T05:18:12;0;0;
57411;PMS5003;43247;52.828;-8.980;2024-02-21T05:19:12;0;0;
57411;PMS5003;43247;52.828;-8.980;2024-02-21T05:20:12;0;0;
57411;PMS5003;43247;52.828;-8.980;2024-02-21T05:21:13;0;0;
57411;PMS5003;43247;52.828;-8.980;2024-02-21T05:22:13;0;0;
57411;PMS5003;43247;52.828;-8.980;2024-02-21T05:23:13;0;0;
57411;PMS5003;43247;52.828;-8.980;2024-02-21T05:24:13;0;0;
57411;PMS5003;43247;52.828;-8.980;2024-02-21T05:25:13;0;0;
57411;PMS5003;43247;52.828;-8.980;2024-02-21T05:27:14;0;0;
57411;PMS5003;43247;52.828;-8.980;2024-02-21T05:28:14;0;0;
57411;PMS5003;43247;52.828;-8.980;2024-02-21T05:29:14;0;0;
57411;PMS5003;43247;52.828;-8.980;2024-02-21T05:30:14;0;0;
57411;PMS5003;43247;52.828;-8.980;2024-02-21T05:31:14;0;0;
57411;PMS5003;43247;52.828;-8.980;2024-02-21T05:32:14;0;0;
57411;PMS5003;43247;52.828;-8.980;2024-02-21T05:33:15;0;0;
57411;PMS5003;43247;52.828;-8.980;2024-02-21T05:34:15;0;0;
57411;PMS5003;43247;52.828;-8.980;2024-02-21T05:35:15;0;0;
57411;PMS5003;43247;52.828;-8.980;2024-02-21T05:36:15;0;0;
57411;PMS5003;43247;52.828;-8.980;2024-02-21T05:37:15;0;0;
57411;PMS5003;43247;52.828;-8.980;2024-02-21T05:38:16;0;0;
57411;PMS5003;43247;52.828;-8.980;2024-02-21T05:39:17;0;0;
57411;PMS5003;43247;52.828;-8.980;2024-02-21T05:40:16;0;0;
57411;PMS5003;43247;52.828;-8.980;2024-02-21T05:41:16;0;0;
57411;PMS5003;43247;52.828;-8.980;2024-02-21T05:42:16;0;0;
57411;PMS5003;43247;52.828;-8.980;2024-02-21T05:43:16;1;0;
57411;PMS5003;43247;52.828;-8.980;2024-02-21T05:44:16;0;0;
57411;PMS5003;43247;52.828;-8.980;2024-02-21T05:45:16;0;0;
57411;PMS5003;43247;52.828;-8.980;2024-02-21T05:46:18;0;0;
57411;PMS5003;43247;52.828;-8.980;2024-02-21T05:47:17;0;0;
57411;PMS5003;43247;52.828;-8.980;2024-02-21T05:48:17;0;0;
57411;PMS5003;43247;52.828;-8.980;2024-02-21T05:49:17;0;0;
57411;PMS5003;43247;52.828;-8.980;2024-02-21T05:50:17;0;0;
57411;PMS5003;43247;52.828;-8.980;2024-02-21T05:51:17;0;0;
57411;PMS5003;43247;52.828;-8.980;2024-02-21T05:52:18;0;0;
57411;PMS5003;43247;52.828;-8.980;2024-02-21T05:53:18;0;0;
57411;PMS5003;43247;52.828;-8.980;2024-02-21T05:54:18;0;0;
57411;PMS5003;43247;52.828;-8.980;2024-02-21T05:55:18;0;0;
57411;PMS5003;43247;52.828;-8.980;2024-02-21T05:56:18;0;0;
57411;PMS5003;43247;52.828;-8.980;2024-02-21T05:57:18;0;0;
57411;PMS5003;43247;52.828;-8.980;2024-02-21T05:58:18;0;0;
57411;PMS5003;43247;52.828;-8.980;2024-02-21T05:59:19;0;0;
57411;PMS5003;43247;52.828;-8.980;2024-02-21T06:00:19;0;0;
57411;PMS5003;43247;52.828;-8.980;2024-02-21T06:01:19;0;0;
57411;PMS5003;43247;52.828;-8.980;2024-02-21T06:02:20;0;0;
57411;PMS5003;43247;52.828;-8.980;2024-02-21T06:03:20;0;0;
57411;PMS5003;43247;52.828;-8.980;2024-02-21T06:04:20;0;0;
57411;PMS5003;43247;52.828;-8.980;2024-02-21T06:05:20;0;0;
57411;PMS5003;43247;52.828;-8.980;2024-02-21T06:06:20;0;0;
57411;PMS5003;43247;52.828;-8.980;2024-02-21T06:07:20;0;0;
57411;PMS5003;43247;52.828;-8.980;2024-02-21T06:08:21;0;0;
57411;PMS5003;43247;52.828;-8.980;2024-02-21T06:09:21;0;0;
57411;PMS5003;43247;52.828;-8.980;2024-02-21T06:10:21;0;0;
57411;PMS5003;43247;52.828;-8.980;2024-02-21T06:11:21;0;0;
57411;PMS5003;43247;52.828;-8.980;2024-02-21T06:12:21;0;0;
57411;PMS5003;43247;52.828;-8.980;2024-02-21T06:13:22;0;0;
57411;PMS5003;43247;52.828;-8.980;2024-02-21T06:14:22;0;0;
57411;PMS5003;43247;52.828;-8.980;2024-02-21T06:15:22;0;0;
57411;PMS5003;43247;52.828;-8.980;2024-02-21T06:16:22;0;0;
57411;PMS5003;43247;52.828;-8.980;2024-02-21T06:17:22;0;0;
57411;PMS5003;43247;52.828;-8.980;2024-02-21T06:18:22;0;0;
57411;PMS5003;43247;52.828;-8.980;2024-02-21T06:19:22;0;0;
57411;PMS5003;43247;52.828;-8.980;2024-02-21T06:20:23;0;0;
57411;PMS5003;43247;52.828;-8.980;2024-02-21T06:21:23;0;0;
57411;PMS5003;43247;52.828;-8.980;2024-02-21T06:22:23;0;0;
57411;PMS5003;43247;52.828;-8.980;2024-02-21T06:23:23;0;0;
57411;PMS5003;43247;52.828;-8.980;2024-02-21T06:24:23;0;0;
57411;PMS5003;43247;52.828;-8.980;2024-02-21T06:25:23;0;0;
57411;PMS5003;43247;52.828;-8.980;2024-02-21T06:26:24;0;0;
57411;PMS5003;43247;52.828;-8.980;2024-02-21T06:27:24;0;0;
57411;PMS5003;43247;52.828;-8.980;2024-02-21T06:28:24;0;0;
57411;PMS5003;43247;52.828;-8.980;2024-02-21T06:29:24;0;0;
57411;PMS5003;43247;52.828;-8.980;2024-02-21T06:30:24;0;0;
57411;PMS5003;43247;52.828;-8.980;2024-02-21T06:31:24;0;0;
57411;PMS5003;43247;52.828;-8.980;2024-02-21T06:32:24;0;0;
57411;PMS5003;43247;52.828;-8.980;2024-02-21T06:33:25;0;0;
57411;PMS5003;43247;52.828;-8.980;2024-02-21T06:34:25;0;0;
57411;PMS5003;43247;52.828;-8.980;2024-02-21T06:35:26;0;0;
57411;PMS5003;43247;52.828;-8.980;2024-02-21T06:36:26;0;0;
57411;PMS5003;43247;52.828;-8.980;2024-02-21T06:37:26;0;0;
57411;PMS5003;43247;52.828;-8.980;2024-02-21T06:38:26;0;0;
57411;PMS5003;43247;52.828;-8.980;2024-02-21T06:39:26;0;0;
57411;PMS5003;43247;52.828;-8.980;2024-02-21T06:40:26;0;0;
57411;PMS5003;43247;52.828;-8.980;2024-02-21T06:41:26;0;0;
57411;PMS5003;43247;52.828;-8.980;2024-02-21T06:42:27;0;0;
57411;PMS5003;43247;52.828;-8.980;2024-02-21T06:43:27;0;0;
57411;PMS5003;43247;52.828;-8.980;2024-02-21T06:44:27;0;0;
57411;PMS5003;43247;52.828;-8.980;2024-02-21T06:45:27;0;0;